sensor_id;sensor_type;location;lat;lon;timestamp;temperature;humidity
22633;DHT22;11483;55.828;37.488;2024-03-06T00:02:11;-3.90;99.90
22633;DHT22;11483;55.828;37.488;2024-03-06T00:04:37;-3.90;99.90
22633;DHT22;11483;55.828;37.488;2024-03-06T00:07:04;-3.90;99.90
22633;DHT22;11483;55.828;37.488;2024-03-06T00:09:30;-4.00;99.90
22633;DHT22;11483;55.828;37.488;2024-03-06T00:11:57;-4.00;99.90
22633;DHT22;11483;55.828;37.488;2024-03-06T00:14:23;-4.10;99.90
22633;DHT22;11483;55.828;37.488;2024-03-06T00:16:50;-4.10;99.90
22633;DHT22;11483;55.828;37.488;2024-03-06T00:19:17;-4.10;99.90
22633;DHT22;11483;55.828;37.488;2024-03-06T00:21:43;-4.10;99.90
22633;DHT22;11483;55.828;37.488;2024-03-06T00:24:12;-4.20;99.90
22633;DHT22;11483;55.828;37.488;2024-03-06T00:26:43;-4.20;99.90
22633;DHT22;11483;55.828;37.488;2024-03-06T00:29:10;-4.20;99.90
22633;DHT22;11483;55.828;37.488;2024-03-06T00:31:42;-4.30;99.90
22633;DHT22;11483;55.828;37.488;2024-03-06T00:34:09;-4.30;99.90
22633;DHT22;11483;55.828;37.488;2024-03-06T00:36:34;-4.30;99.90
22633;DHT22;11483;55.828;37.488;2024-03-06T00:39:00;-4.30;99.90
22633;DHT22;11483;55.828;37.488;2024-03-06T00:41:26;-4.40;99.90
22633;DHT22;11483;55.828;37.488;2024-03-06T00:43:52;-4.40;99.90
22633;DHT22;11483;55.828;37.488;2024-03-06T00:46:18;-4.40;99.90
22633;DHT22;11483;55.828;37.488;2024-03-06T00:48:44;-4.40;99.90
22633;DHT22;11483;55.828;37.488;2024-03-06T00:51:10;-4.40;99.90
22633;DHT22;11483;55.828;37.488;2024-03-06T00:53:35;-4.40;99.90
22633;DHT22;11483;55.828;37.488;2024-03-06T00:56:02;-4.40;99.90
22633;DHT22;11483;55.828;37.488;2024-03-06T00:58:28;-4.50;99.90
22633;DHT22;11483;55.828;37.488;2024-03-06T01:00:54;-4.50;99.90
22633;DHT22;11483;55.828;37.488;2024-03-06T01:03:20;-4.50;99.90
22633;DHT22;11483;55.828;37.488;2024-03-06T01:05:46;-4.60;99.90
22633;DHT22;11483;55.828;37.488;2024-03-06T01:08:12;-4.60;99.90
22633;DHT22;11483;55.828;37.488;2024-03-06T01:10:38;-4.60;99.90
22633;DHT22;11483;55.828;37.488;2024-03-06T01:13:04;-4.60;99.90
22633;DHT22;11483;55.828;37.488;2024-03-06T01:15:30;-4.60;99.90
22633;DHT22;11483;55.828;37.488;2024-03-06T01:17:56;-4.70;99.90
22633;DHT22;11483;55.828;37.488;2024-03-06T01:20:23;-4.70;99.90
22633;DHT22;11483;55.828;37.488;2024-03-06T01:22:49;-4.70;99.90
22633;DHT22;11483;55.828;37.488;2024-03-06T01:25:15;-4.70;99.90
22633;DHT22;11483;55.828;37.488;2024-03-06T01:27:40;-4.70;99.90
22633;DHT22;11483;55.828;37.488;2024-03-06T01:30:07;-4.80;99.90
22633;DHT22;11483;55.828;37.488;2024-03-06T01:32:33;-4.80;99.90
22633;DHT22;11483;55.828;37.488;2024-03-06T01:34:59;-4.80;99.90
22633;DHT22;11483;55.828;37.488;2024-03-06T01:37:25;-4.80;99.90
22633;DHT22;11483;55.828;37.488;2024-03-06T01:39:51;-4.90;99.90
22633;DHT22;11483;55.828;37.488;2024-03-06T01:42:17;-4.90;99.90
22633;DHT22;11483;55.828;37.488;2024-03-06T01:44:44;-4.90;99.90
22633;DHT22;11483;55.828;37.488;2024-03-06T01:47:09;-4.90;99.90
22633;DHT22;11483;55.828;37.488;2024-03-06T01:49:35;-4.90;99.90
22633;DHT22;11483;55.828;37.488;2024-03-06T01:52:02;-5.00;99.90
22633;DHT22;11483;55.828;37.488;2024-03-06T01:54:29;-5.00;99.90
22633;DHT22;11483;55.828;37.488;2024-03-06T01:56:58;-5.00;99.90
22633;DHT22;11483;55.828;37.488;2024-03-06T01:59:27;-5.00;99.90
22633;DHT22;11483;55.828;37.488;2024-03-06T02:01:54;-5.00;99.90
22633;DHT22;11483;55.828;37.488;2024-03-06T02:04:20;-5.00;99.90
22633;DHT22;11483;55.828;37.488;2024-03-06T02:06:46;-5.10;99.90
22633;DHT22;11483;55.828;37.488;2024-03-06T02:09:12;-5.10;99.90
22633;DHT22;11483;55.828;37.488;2024-03-06T02:11:40;-5.10;99.90
22633;DHT22;11483;55.828;37.488;2024-03-06T02:14:07;-5.20;99.90
22633;DHT22;11483;55.828;37.488;2024-03-06T02:16:36;-5.30;99.90
22633;DHT22;11483;55.828;37.488;2024-03-06T02:19:02;-5.30;99.90
22633;DHT22;11483;55.828;37.488;2024-03-06T02:21:29;-5.30;99.90
22633;DHT22;11483;55.828;37.488;2024-03-06T02:23:54;-5.40;99.90
22633;DHT22;11483;55.828;37.488;2024-03-06T02:26:21;-5.40;99.90
22633;DHT22;11483;55.828;37.488;2024-03-06T02:28:52;-5.50;99.90
22633;DHT22;11483;55.828;37.488;2024-03-06T02:31:19;-5.50;99.90
22633;DHT22;11483;55.828;37.488;2024-03-06T02:33:46;-5.60;99.90
22633;DHT22;11483;55.828;37.488;2024-03-06T02:36:18;-5.70;99.90
22633;DHT22;11483;55.828;37.488;2024-03-06T02:38:45;-5.70;99.90
22633;DHT22;11483;55.828;37.488;2024-03-06T02:41:11;-5.70;99.90
22633;DHT22;11483;55.828;37.488;2024-03-06T02:43:37;-5.70;99.90
22633;DHT22;11483;55.828;37.488;2024-03-06T02:46:03;-5.70;99.90
22633;DHT22;11483;55.828;37.488;2024-03-06T02:48:30;-5.70;99.90
22633;DHT22;11483;55.828;37.488;2024-03-06T02:50:56;-5.70;99.90
22633;DHT22;11483;55.828;37.488;2024-03-06T02:53:22;-5.70;99.90
22633;DHT22;11483;55.828;37.488;2024-03-06T02:55:48;-5.70;99.90
22633;DHT22;11483;55.828;37.488;2024-03-06T02:58:15;-5.70;99.90
22633;DHT22;11483;55.828;37.488;2024-03-06T03:00:42;-5.80;99.90
22633;DHT22;11483;55.828;37.488;2024-03-06T03:03:09;-5.80;99.90
22633;DHT22;11483;55.828;37.488;2024-03-06T03:05:38;-5.80;99.90
22633;DHT22;11483;55.828;37.488;2024-03-06T03:08:05;-5.90;99.90
22633;DHT22;11483;55.828;37.488;2024-03-06T03:10:31;-5.90;99.90
22633;DHT22;11483;55.828;37.488;2024-03-06T03:12:57;-6.00;99.90
22633;DHT22;11483;55.828;37.488;2024-03-06T03:15:23;-6.00;99.90
22633;DHT22;11483;55.828;37.488;2024-03-06T03:17:49;-6.00;99.90
22633;DHT22;11483;55.828;37.488;2024-03-06T03:20:14;-6.00;99.90
22633;DHT22;11483;55.828;37.488;2024-03-06T03:22:42;-6.00;99.90
22633;DHT22;11483;55.828;37.488;2024-03-06T03:25:13;-6.10;99.90
22633;DHT22;11483;55.828;37.488;2024-03-06T03:27:40;-6.10;99.90
22633;DHT22;11483;55.828;37.488;2024-03-06T03:30:15;-6.20;99.90
22633;DHT22;11483;55.828;37.488;2024-03-06T03:32:41;-6.30;99.90
22633;DHT22;11483;55.828;37.488;2024-03-06T03:35:08;-6.30;99.90
22633;DHT22;11483;55.828;37.488;2024-03-06T03:37:34;-6.30;99.90
22633;DHT22;11483;55.828;37.488;2024-03-06T03:40:00;-6.30;99.90
22633;DHT22;11483;55.828;37.488;2024-03-06T03:42:26;-6.40;99.90
22633;DHT22;11483;55.828;37.488;2024-03-06T03:44:52;-6.40;99.90
22633;DHT22;11483;55.828;37.488;2024-03-06T03:47:18;-6.40;99.90
22633;DHT22;11483;55.828;37.488;2024-03-06T03:49:44;-6.40;99.90
22633;DHT22;11483;55.828;37.488;2024-03-06T03:52:12;-6.40;99.90
22633;DHT22;11483;55.828;37.488;2024-03-06T03:54:39;-6.40;99.90
22633;DHT22;11483;55.828;37.488;2024-03-06T03:57:05;-6.30;99.90
22633;DHT22;11483;55.828;37.488;2024-03-06T03:59:32;-6.40;99.90
22633;DHT22;11483;55.828;37.488;2024-03-06T04:01:58;-6.40;99.90
22633;DHT22;11483;55.828;37.488;2024-03-06T04:04:24;-6.40;99.90
22633;DHT22;11483;55.828;37.488;2024-03-06T04:06:50;-6.40;99.90
22633;DHT22;11483;55.828;37.488;2024-03-06T04:09:16;-6.40;99.90
22633;DHT22;11483;55.828;37.488;2024-03-06T04:11:42;-6.40;99.90
22633;DHT22;11483;55.828;37.488;2024-03-06T04:14:08;-6.40;99.90
22633;DHT22;11483;55.828;37.488;2024-03-06T04:16:34;-6.40;99.90
22633;DHT22;11483;55.828;37.488;2024-03-06T04:19:01;-6.40;99.90
22633;DHT22;11483;55.828;37.488;2024-03-06T04:21:27;-6.50;99.90
22633;DHT22;11483;55.828;37.488;2024-03-06T04:23:53;-6.50;99.90
22633;DHT22;11483;55.828;37.488;2024-03-06T04:26:19;-6.40;99.90
22633;DHT22;11483;55.828;37.488;2024-03-06T04:28:45;-6.40;99.90
22633;DHT22;11483;55.828;37.488;2024-03-06T04:31:11;-6.40;99.90
22633;DHT22;11483;55.828;37.488;2024-03-06T04:33:37;-6.30;99.90
22633;DHT22;11483;55.828;37.488;2024-03-06T04:36:04;-6.30;99.90
22633;DHT22;11483;55.828;37.488;2024-03-06T04:38:34;-6.30;99.90
22633;DHT22;11483;55.828;37.488;2024-03-06T04:41:00;-6.30;99.90
22633;DHT22;11483;55.828;37.488;2024-03-06T04:43:26;-6.10;99.90
22633;DHT22;11483;55.828;37.488;2024-03-06T04:45:51;-6.10;99.90
22633;DHT22;11483;55.828;37.488;2024-03-06T04:48:17;-6.10;99.90
22633;DHT22;11483;55.828;37.488;2024-03-06T04:50:43;-6.00;99.90
22633;DHT22;11483;55.828;37.488;2024-03-06T04:53:10;-6.00;99.90
22633;DHT22;11483;55.828;37.488;2024-03-06T04:55:37;-5.90;99.90
22633;DHT22;11483;55.828;37.488;2024-03-06T04:58:03;-5.80;99.90
22633;DHT22;11483;55.828;37.488;2024-03-06T05:00:30;-5.80;99.90
22633;DHT22;11483;55.828;37.488;2024-03-06T05:02:56;-5.70;99.90
22633;DHT22;11483;55.828;37.488;2024-03-06T05:05:22;-5.70;99.90
22633;DHT22;11483;55.828;37.488;2024-03-06T05:07:48;-5.60;99.90
22633;DHT22;11483;55.828;37.488;2024-03-06T05:10:14;-5.50;99.90
22633;DHT22;11483;55.828;37.488;2024-03-06T05:12:42;-5.40;99.90
22633;DHT22;11483;55.828;37.488;2024-03-06T05:15:09;-5.40;99.90
22633;DHT22;11483;55.828;37.488;2024-03-06T05:17:35;-5.30;99.90
22633;DHT22;11483;55.828;37.488;2024-03-06T05:20:01;-5.30;99.90
22633;DHT22;11483;55.828;37.488;2024-03-06T05:22:29;-5.30;99.90
22633;DHT22;11483;55.828;37.488;2024-03-06T05:24:55;-5.30;99.90
22633;DHT22;11483;55.828;37.488;2024-03-06T05:27:21;-5.30;99.90
22633;DHT22;11483;55.828;37.488;2024-03-06T05:29:47;-5.30;99.90
22633;DHT22;11483;55.828;37.488;2024-03-06T05:32:13;-5.30;99.90
22633;DHT22;11483;55.828;37.488;2024-03-06T05:34:39;-5.30;99.90
22633;DHT22;11483;55.828;37.488;2024-03-06T05:37:05;-5.20;99.90
22633;DHT22;11483;55.828;37.488;2024-03-06T05:39:32;-5.20;99.90
22633;DHT22;11483;55.828;37.488;2024-03-06T05:42:02;-5.20;99.90
22633;DHT22;11483;55.828;37.488;2024-03-06T05:44:31;-5.00;99.90
22633;DHT22;11483;55.828;37.488;2024-03-06T05:47:01;-4.90;99.90
22633;DHT22;11483;55.828;37.488;2024-03-06T05:49:28;-4.90;99.90
22633;DHT22;11483;55.828;37.488;2024-03-06T05:51:54;-4.80;99.90
22633;DHT22;11483;55.828;37.488;2024-03-06T05:54:20;-4.70;99.90
22633;DHT22;11483;55.828;37.488;2024-03-06T05:56:50;-4.60;99.90
22633;DHT22;11483;55.828;37.488;2024-03-06T05:59:17;-4.50;99.90
22633;DHT22;11483;55.828;37.488;2024-03-06T06:01:43;-4.40;99.90
22633;DHT22;11483;55.828;37.488;2024-03-06T06:04:10;-4.30;99.90
22633;DHT22;11483;55.828;37.488;2024-03-06T06:06:36;-4.20;99.90
22633;DHT22;11483;55.828;37.488;2024-03-06T06:09:02;-4.10;99.90
22633;DHT22;11483;55.828;37.488;2024-03-06T06:11:32;-4.00;99.90
22633;DHT22;11483;55.828;37.488;2024-03-06T06:13:59;-3.80;99.90
22633;DHT22;11483;55.828;37.488;2024-03-06T06:16:25;-3.60;99.90
22633;DHT22;11483;55.828;37.488;2024-03-06T06:18:51;-3.40;99.90
22633;DHT22;11483;55.828;37.488;2024-03-06T06:21:18;-3.30;99.90
22633;DHT22;11483;55.828;37.488;2024-03-06T06:23:44;-3.20;99.90
22633;DHT22;11483;55.828;37.488;2024-03-06T06:26:10;-3.10;99.90
22633;DHT22;11483;55.828;37.488;2024-03-06T06:28:36;-3.10;99.90
22633;DHT22;11483;55.828;37.488;2024-03-06T06:31:03;-3.00;99.90
22633;DHT22;11483;55.828;37.488;2024-03-06T06:33:30;-2.90;99.90
22633;DHT22;11483;55.828;37.488;2024-03-06T06:35:56;-2.80;99.90
22633;DHT22;11483;55.828;37.488;2024-03-06T06:38:22;-2.70;99.90
22633;DHT22;11483;55.828;37.488;2024-03-06T06:40:48;-2.70;99.90
22633;DHT22;11483;55.828;37.488;2024-03-06T06:43:14;-2.80;99.90
22633;DHT22;11483;55.828;37.488;2024-03-06T06:45:41;-2.80;99.90
22633;DHT22;11483;55.828;37.488;2024-03-06T06:48:07;-2.60;99.90
22633;DHT22;11483;55.828;37.488;2024-03-06T06:50:35;-2.60;99.90
22633;DHT22;11483;55.828;37.488;2024-03-06T06:53:01;-2.60;99.90
22633;DHT22;11483;55.828;37.488;2024-03-06T06:55:27;-2.50;99.90
22633;DHT22;11483;55.828;37.488;2024-03-06T06:57:53;-2.90;99.90
22633;DHT22;11483;55.828;37.488;2024-03-06T07:00:19;-2.60;99.90
22633;DHT22;11483;55.828;37.488;2024-03-06T07:02:47;-2.60;99.90
22633;DHT22;11483;55.828;37.488;2024-03-06T07:05:14;-2.70;99.90
22633;DHT22;11483;55.828;37.488;2024-03-06T07:07:40;-2.60;99.90
22633;DHT22;11483;55.828;37.488;2024-03-06T07:10:07;-2.50;99.90
22633;DHT22;11483;55.828;37.488;2024-03-06T07:12:33;-2.40;99.90
22633;DHT22;11483;55.828;37.488;2024-03-06T07:14:59;-2.20;99.90
22633;DHT22;11483;55.828;37.488;2024-03-06T07:17:26;-2.20;99.90
22633;DHT22;11483;55.828;37.488;2024-03-06T07:19:51;-2.10;99.90
22633;DHT22;11483;55.828;37.488;2024-03-06T07:22:18;-2.00;99.90
22633;DHT22;11483;55.828;37.488;2024-03-06T07:24:44;-1.90;99.90
22633;DHT22;11483;55.828;37.488;2024-03-06T07:27:11;-2.00;99.90
22633;DHT22;11483;55.828;37.488;2024-03-06T07:29:37;-2.00;99.90
22633;DHT22;11483;55.828;37.488;2024-03-06T07:32:03;-2.10;99.90
22633;DHT22;11483;55.828;37.488;2024-03-06T07:34:32;-2.00;99.90
22633;DHT22;11483;55.828;37.488;2024-03-06T07:36:59;-2.00;99.90
22633;DHT22;11483;55.828;37.488;2024-03-06T07:39:25;-1.70;99.90
22633;DHT22;11483;55.828;37.488;2024-03-06T07:41:51;-1.70;99.90
22633;DHT22;11483;55.828;37.488;2024-03-06T07:44:17;-1.60;99.90
22633;DHT22;11483;55.828;37.488;2024-03-06T07:46:43;-1.40;99.90
22633;DHT22;11483;55.828;37.488;2024-03-06T07:49:09;-1.10;99.90
22633;DHT22;11483;55.828;37.488;2024-03-06T07:51:35;-0.90;99.90
22633;DHT22;11483;55.828;37.488;2024-03-06T07:54:03;-0.80;99.90
22633;DHT22;11483;55.828;37.488;2024-03-06T07:56:30;-0.60;99.90
22633;DHT22;11483;55.828;37.488;2024-03-06T07:58:56;-0.50;99.90
22633;DHT22;11483;55.828;37.488;2024-03-06T08:01:22;-0.20;99.90
22633;DHT22;11483;55.828;37.488;2024-03-06T08:03:48;0.10;99.90
22633;DHT22;11483;55.828;37.488;2024-03-06T08:06:14;0.30;99.90
22633;DHT22;11483;55.828;37.488;2024-03-06T08:08:42;0.40;99.90
22633;DHT22;11483;55.828;37.488;2024-03-06T08:11:10;0.50;99.20
22633;DHT22;11483;55.828;37.488;2024-03-06T08:13:37;0.70;98.90
22633;DHT22;11483;55.828;37.488;2024-03-06T08:16:04;0.80;98.40
22633;DHT22;11483;55.828;37.488;2024-03-06T08:18:30;1.00;98.60
22633;DHT22;11483;55.828;37.488;2024-03-06T08:20:56;1.30;96.60
22633;DHT22;11483;55.828;37.488;2024-03-06T08:23:22;1.60;96.90
22633;DHT22;11483;55.828;37.488;2024-03-06T08:25:49;1.50;96.40
22633;DHT22;11483;55.828;37.488;2024-03-06T08:28:15;1.50;96.30
22633;DHT22;11483;55.828;37.488;2024-03-06T08:30:41;1.80;94.70
22633;DHT22;11483;55.828;37.488;2024-03-06T08:33:07;2.10;95.70
22633;DHT22;11483;55.828;37.488;2024-03-06T08:35:34;2.10;94.20
22633;DHT22;11483;55.828;37.488;2024-03-06T08:38:00;2.20;94.10
22633;DHT22;11483;55.828;37.488;2024-03-06T08:40:26;2.30;93.80
22633;DHT22;11483;55.828;37.488;2024-03-06T08:42:53;2.50;93.40
22633;DHT22;11483;55.828;37.488;2024-03-06T08:45:19;2.70;93.00
22633;DHT22;11483;55.828;37.488;2024-03-06T08:47:46;3.00;93.20
22633;DHT22;11483;55.828;37.488;2024-03-06T08:50:13;3.50;91.60
22633;DHT22;11483;55.828;37.488;2024-03-06T08:52:40;4.30;90.40
22633;DHT22;11483;55.828;37.488;2024-03-06T08:55:07;5.10;88.60
22633;DHT22;11483;55.828;37.488;2024-03-06T08:57:34;5.30;82.30
22633;DHT22;11483;55.828;37.488;2024-03-06T09:00:00;4.70;81.90
22633;DHT22;11483;55.828;37.488;2024-03-06T09:02:26;4.50;82.20
22633;DHT22;11483;55.828;37.488;2024-03-06T09:04:52;4.40;79.50
22633;DHT22;11483;55.828;37.488;2024-03-06T09:07:19;4.40;78.60
22633;DHT22;11483;55.828;37.488;2024-03-06T09:09:45;4.70;80.20
22633;DHT22;11483;55.828;37.488;2024-03-06T09:12:12;4.90;76.10
22633;DHT22;11483;55.828;37.488;2024-03-06T09:14:38;5.00;77.40
22633;DHT22;11483;55.828;37.488;2024-03-06T09:17:05;5.10;77.50
22633;DHT22;11483;55.828;37.488;2024-03-06T09:19:32;5.20;77.10
22633;DHT22;11483;55.828;37.488;2024-03-06T09:21:59;5.20;76.20
22633;DHT22;11483;55.828;37.488;2024-03-06T09:27:09;5.00;74.60
22633;DHT22;11483;55.828;37.488;2024-03-06T09:29:35;4.90;77.20
22633;DHT22;11483;55.828;37.488;2024-03-06T09:32:01;4.70;74.40
22633;DHT22;11483;55.828;37.488;2024-03-06T09:34:27;4.50;75.80
22633;DHT22;11483;55.828;37.488;2024-03-06T09:36:53;4.30;76.70
22633;DHT22;11483;55.828;37.488;2024-03-06T09:39:20;4.30;75.60
22633;DHT22;11483;55.828;37.488;2024-03-06T09:41:49;4.30;74.90
22633;DHT22;11483;55.828;37.488;2024-03-06T09:44:18;4.10;73.90
22633;DHT22;11483;55.828;37.488;2024-03-06T09:46:47;4.10;74.90
22633;DHT22;11483;55.828;37.488;2024-03-06T09:49:18;4.10;71.40
22633;DHT22;11483;55.828;37.488;2024-03-06T09:51:45;3.60;72.10
22633;DHT22;11483;55.828;37.488;2024-03-06T09:54:13;3.50;73.70
22633;DHT22;11483;55.828;37.488;2024-03-06T09:56:49;3.50;76.40
22633;DHT22;11483;55.828;37.488;2024-03-06T09:59:15;3.70;74.80
22633;DHT22;11483;55.828;37.488;2024-03-06T10:01:55;3.90;72.00
22633;DHT22;11483;55.828;37.488;2024-03-06T10:04:28;3.70;71.70
22633;DHT22;11483;55.828;37.488;2024-03-06T10:06:56;3.60;73.60
22633;DHT22;11483;55.828;37.488;2024-03-06T10:09:23;3.50;75.30
22633;DHT22;11483;55.828;37.488;2024-03-06T10:11:49;3.60;72.80
22633;DHT22;11483;55.828;37.488;2024-03-06T10:14:18;3.80;73.00
22633;DHT22;11483;55.828;37.488;2024-03-06T10:16:55;4.20;72.70
22633;DHT22;11483;55.828;37.488;2024-03-06T10:19:25;4.40;70.60
22633;DHT22;11483;55.828;37.488;2024-03-06T10:21:54;4.30;68.90
22633;DHT22;11483;55.828;37.488;2024-03-06T10:24:21;4.40;69.50
22633;DHT22;11483;55.828;37.488;2024-03-06T10:26:56;4.80;69.30
22633;DHT22;11483;55.828;37.488;2024-03-06T10:29:26;5.20;68.60
22633;DHT22;11483;55.828;37.488;2024-03-06T10:31:53;5.70;67.90
22633;DHT22;11483;55.828;37.488;2024-03-06T10:34:26;6.20;67.80
22633;DHT22;11483;55.828;37.488;2024-03-06T10:39:20;7.00;64.80
22633;DHT22;11483;55.828;37.488;2024-03-06T10:41:46;7.40;63.90
22633;DHT22;11483;55.828;37.488;2024-03-06T10:44:21;7.60;62.90
22633;DHT22;11483;55.828;37.488;2024-03-06T10:46:56;7.70;64.30
22633;DHT22;11483;55.828;37.488;2024-03-06T10:49:25;8.20;63.60
22633;DHT22;11483;55.828;37.488;2024-03-06T10:51:52;9.00;58.90
22633;DHT22;11483;55.828;37.488;2024-03-06T10:54:19;9.10;56.90
22633;DHT22;11483;55.828;37.488;2024-03-06T10:56:47;8.90;56.70
22633;DHT22;11483;55.828;37.488;2024-03-06T10:59:14;8.80;55.80
22633;DHT22;11483;55.828;37.488;2024-03-06T11:01:41;8.80;55.70
22633;DHT22;11483;55.828;37.488;2024-03-06T11:04:09;8.70;56.00
22633;DHT22;11483;55.828;37.488;2024-03-06T11:06:37;8.80;57.40
22633;DHT22;11483;55.828;37.488;2024-03-06T11:09:03;8.90;55.50
22633;DHT22;11483;55.828;37.488;2024-03-06T11:11:30;8.90;54.50
22633;DHT22;11483;55.828;37.488;2024-03-06T11:14:15;9.00;53.80
22633;DHT22;11483;55.828;37.488;2024-03-06T11:17:04;9.60;54.90
22633;DHT22;11483;55.828;37.488;2024-03-06T11:28:38;15.20;47.80
22633;DHT22;11483;55.828;37.488;2024-03-06T11:31:10;15.70;41.40
22633;DHT22;11483;55.828;37.488;2024-03-06T11:33:46;16.30;41.20
22633;DHT22;11483;55.828;37.488;2024-03-06T11:36:25;17.40;41.50
22633;DHT22;11483;55.828;37.488;2024-03-06T11:39:04;18.50;38.20
22633;DHT22;11483;55.828;37.488;2024-03-06T11:41:46;18.90;35.80
22633;DHT22;11483;55.828;37.488;2024-03-06T11:44:16;18.20;35.00
22633;DHT22;11483;55.828;37.488;2024-03-06T11:46:44;17.50;34.70
22633;DHT22;11483;55.828;37.488;2024-03-06T11:49:17;16.30;35.60
22633;DHT22;11483;55.828;37.488;2024-03-06T11:51:46;14.60;35.50
22633;DHT22;11483;55.828;37.488;2024-03-06T11:54:13;14.00;37.50
22633;DHT22;11483;55.828;37.488;2024-03-06T11:56:44;14.00;36.80
22633;DHT22;11483;55.828;37.488;2024-03-06T11:59:11;13.40;37.40
22633;DHT22;11483;55.828;37.488;2024-03-06T12:01:37;12.70;37.70
22633;DHT22;11483;55.828;37.488;2024-03-06T12:04:04;12.30;37.70
22633;DHT22;11483;55.828;37.488;2024-03-06T12:06:32;12.30;38.30
22633;DHT22;11483;55.828;37.488;2024-03-06T12:08:59;11.80;38.50
22633;DHT22;11483;55.828;37.488;2024-03-06T12:11:25;10.90;37.60
22633;DHT22;11483;55.828;37.488;2024-03-06T12:13:55;10.10;38.40
22633;DHT22;11483;55.828;37.488;2024-03-06T12:16:21;9.40;38.60
22633;DHT22;11483;55.828;37.488;2024-03-06T12:18:57;8.40;39.90
22633;DHT22;11483;55.828;37.488;2024-03-06T12:21:32;7.70;40.20
22633;DHT22;11483;55.828;37.488;2024-03-06T12:27:02;7.00;39.70
22633;DHT22;11483;55.828;37.488;2024-03-06T12:29:32;6.70;39.10
22633;DHT22;11483;55.828;37.488;2024-03-06T12:31:59;6.30;39.60
22633;DHT22;11483;55.828;37.488;2024-03-06T12:34:25;6.00;41.00
22633;DHT22;11483;55.828;37.488;2024-03-06T12:36:51;5.60;41.70
22633;DHT22;11483;55.828;37.488;2024-03-06T12:39:18;5.90;43.10
22633;DHT22;11483;55.828;37.488;2024-03-06T12:41:47;6.50;43.20
22633;DHT22;11483;55.828;37.488;2024-03-06T12:44:13;6.80;42.50
22633;DHT22;11483;55.828;37.488;2024-03-06T12:46:41;6.60;43.70
22633;DHT22;11483;55.828;37.488;2024-03-06T12:49:07;6.80;44.20
22633;DHT22;11483;55.828;37.488;2024-03-06T12:51:33;7.80;44.10
22633;DHT22;11483;55.828;37.488;2024-03-06T12:53:59;7.60;42.60
22633;DHT22;11483;55.828;37.488;2024-03-06T12:56:26;7.10;43.00
22633;DHT22;11483;55.828;37.488;2024-03-06T12:58:52;6.70;43.40
22633;DHT22;11483;55.828;37.488;2024-03-06T13:01:18;6.20;43.90
22633;DHT22;11483;55.828;37.488;2024-03-06T13:03:45;5.70;44.40
22633;DHT22;11483;55.828;37.488;2024-03-06T13:06:11;5.10;45.50
22633;DHT22;11483;55.828;37.488;2024-03-06T13:08:37;4.60;45.80
22633;DHT22;11483;55.828;37.488;2024-03-06T13:11:03;4.20;46.30
22633;DHT22;11483;55.828;37.488;2024-03-06T13:13:29;3.80;47.00
22633;DHT22;11483;55.828;37.488;2024-03-06T13:15:58;3.40;47.10
22633;DHT22;11483;55.828;37.488;2024-03-06T13:18:24;3.20;47.20
22633;DHT22;11483;55.828;37.488;2024-03-06T13:20:52;2.80;47.10
22633;DHT22;11483;55.828;37.488;2024-03-06T13:23:18;2.60;46.40
22633;DHT22;11483;55.828;37.488;2024-03-06T13:25:44;2.50;45.10
22633;DHT22;11483;55.828;37.488;2024-03-06T13:28:12;2.30;44.70
22633;DHT22;11483;55.828;37.488;2024-03-06T13:30:38;2.50;44.90
22633;DHT22;11483;55.828;37.488;2024-03-06T13:33:05;3.20;44.60
22633;DHT22;11483;55.828;37.488;2024-03-06T13:35:33;4.20;44.20
22633;DHT22;11483;55.828;37.488;2024-03-06T13:37:59;5.00;43.30
22633;DHT22;11483;55.828;37.488;2024-03-06T13:40:25;5.80;42.70
22633;DHT22;11483;55.828;37.488;2024-03-06T13:42:52;6.50;41.20
22633;DHT22;11483;55.828;37.488;2024-03-06T13:45:18;6.90;40.90
22633;DHT22;11483;55.828;37.488;2024-03-06T13:47:44;7.30;40.20
22633;DHT22;11483;55.828;37.488;2024-03-06T13:50:15;7.40;40.60
22633;DHT22;11483;55.828;37.488;2024-03-06T13:52:42;7.30;40.60
22633;DHT22;11483;55.828;37.488;2024-03-06T13:55:08;7.20;40.80
22633;DHT22;11483;55.828;37.488;2024-03-06T13:57:36;7.20;41.10
22633;DHT22;11483;55.828;37.488;2024-03-06T14:00:09;7.00;41.60
22633;DHT22;11483;55.828;37.488;2024-03-06T14:02:39;7.20;41.50
22633;DHT22;11483;55.828;37.488;2024-03-06T14:05:06;7.10;41.00
22633;DHT22;11483;55.828;37.488;2024-03-06T14:07:33;7.20;41.30
22633;DHT22;11483;55.828;37.488;2024-03-06T14:09:59;7.20;41.10
22633;DHT22;11483;55.828;37.488;2024-03-06T14:12:25;6.90;41.50
22633;DHT22;11483;55.828;37.488;2024-03-06T14:14:51;7.00;41.90
22633;DHT22;11483;55.828;37.488;2024-03-06T14:17:17;7.20;41.60
22633;DHT22;11483;55.828;37.488;2024-03-06T14:19:43;7.10;41.20
22633;DHT22;11483;55.828;37.488;2024-03-06T14:22:10;6.90;41.70
22633;DHT22;11483;55.828;37.488;2024-03-06T14:24:36;6.70;41.70
22633;DHT22;11483;55.828;37.488;2024-03-06T14:27:02;6.60;41.50
22633;DHT22;11483;55.828;37.488;2024-03-06T14:29:32;6.60;42.00
22633;DHT22;11483;55.828;37.488;2024-03-06T14:31:58;6.40;41.60
22633;DHT22;11483;55.828;37.488;2024-03-06T14:34:24;6.00;41.60
22633;DHT22;11483;55.828;37.488;2024-03-06T14:36:51;5.70;42.10
22633;DHT22;11483;55.828;37.488;2024-03-06T14:39:18;5.80;42.40
22633;DHT22;11483;55.828;37.488;2024-03-06T14:41:44;5.60;42.50
22633;DHT22;11483;55.828;37.488;2024-03-06T14:44:12;5.70;43.00
22633;DHT22;11483;55.828;37.488;2024-03-06T14:46:40;5.50;42.90
22633;DHT22;11483;55.828;37.488;2024-03-06T14:49:07;5.70;42.60
22633;DHT22;11483;55.828;37.488;2024-03-06T14:51:33;5.70;42.90
22633;DHT22;11483;55.828;37.488;2024-03-06T14:53:59;5.60;42.80
22633;DHT22;11483;55.828;37.488;2024-03-06T14:59:10;5.10;43.40
22633;DHT22;11483;55.828;37.488;2024-03-06T15:01:36;4.70;43.20
22633;DHT22;11483;55.828;37.488;2024-03-06T15:04:03;4.40;43.70
22633;DHT22;11483;55.828;37.488;2024-03-06T15:06:29;4.20;44.50
22633;DHT22;11483;55.828;37.488;2024-03-06T15:08:55;4.00;44.40
22633;DHT22;11483;55.828;37.488;2024-03-06T15:11:21;3.80;44.80
22633;DHT22;11483;55.828;37.488;2024-03-06T15:13:50;3.50;45.00
22633;DHT22;11483;55.828;37.488;2024-03-06T15:16:16;3.20;44.80
22633;DHT22;11483;55.828;37.488;2024-03-06T15:18:43;2.60;45.40
22633;DHT22;11483;55.828;37.488;2024-03-06T15:21:09;2.20;46.20
22633;DHT22;11483;55.828;37.488;2024-03-06T15:23:36;1.80;46.40
22633;DHT22;11483;55.828;37.488;2024-03-06T15:26:01;1.60;47.20
22633;DHT22;11483;55.828;37.488;2024-03-06T15:28:27;1.30;47.40
22633;DHT22;11483;55.828;37.488;2024-03-06T15:30:53;1.20;47.70
22633;DHT22;11483;55.828;37.488;2024-03-06T15:33:20;1.00;47.70
22633;DHT22;11483;55.828;37.488;2024-03-06T15:35:46;0.90;48.20
22633;DHT22;11483;55.828;37.488;2024-03-06T15:38:12;0.80;48.60
22633;DHT22;11483;55.828;37.488;2024-03-06T15:40:38;0.70;49.30
22633;DHT22;11483;55.828;37.488;2024-03-06T15:43:03;0.60;49.30